sensor_id;sensor_type;location;lat;lon;timestamp;P1;durP1;ratioP1;P2;durP2;ratioP2
75087;SDS011;63664;44.868;40.600;2023-03-19T00:02:25;53.53;;;7.93;;
75087;SDS011;63664;44.868;40.600;2023-03-19T00:04:51;53.28;;;7.47;;
75087;SDS011;63664;44.868;40.600;2023-03-19T00:07:17;63.20;;;8.55;;
75087;SDS011;63664;44.868;40.600;2023-03-19T00:09:44;51.67;;;6.97;;
75087;SDS011;63664;44.868;40.600;2023-03-19T00:12:12;49.92;;;8.32;;
75087;SDS011;63664;44.868;40.600;2023-03-19T00:14:39;51.38;;;6.95;;
75087;SDS011;63664;44.868;40.600;2023-03-19T00:17:06;52.28;;;7.60;;
75087;SDS011;63664;44.868;40.600;2023-03-19T00:19:33;60.25;;;8.57;;
75087;SDS011;63664;44.868;40.600;2023-03-19T00:21:59;59.42;;;7.57;;
75087;SDS011;63664;44.868;40.600;2023-03-19T00:24:26;54.10;;;7.82;;
75087;SDS011;63664;44.868;40.600;2023-03-19T00:26:55;55.50;;;9.95;;
75087;SDS011;63664;44.868;40.600;2023-03-19T00:29:22;61.55;;;8.25;;
75087;SDS011;63664;44.868;40.600;2023-03-19T00:31:52;46.08;;;6.53;;
75087;SDS011;63664;44.868;40.600;2023-03-19T00:34:18;54.78;;;6.38;;
75087;SDS011;63664;44.868;40.600;2023-03-19T00:36:47;60.80;;;8.70;;
75087;SDS011;63664;44.868;40.600;2023-03-19T00:39:14;56.42;;;7.05;;
75087;SDS011;63664;44.868;40.600;2023-03-19T00:41:40;54.33;;;7.53;;
75087;SDS011;63664;44.868;40.600;2023-03-19T00:44:09;54.55;;;7.70;;
75087;SDS011;63664;44.868;40.600;2023-03-19T00:46:38;53.35;;;9.23;;
75087;SDS011;63664;44.868;40.600;2023-03-19T00:49:07;61.03;;;6.20;;
75087;SDS011;63664;44.868;40.600;2023-03-19T00:51:33;55.05;;;10.70;;
75087;SDS011;63664;44.868;40.600;2023-03-19T00:53:59;51.88;;;7.60;;
75087;SDS011;63664;44.868;40.600;2023-03-19T00:56:28;52.80;;;9.40;;
75087;SDS011;63664;44.868;40.600;2023-03-19T00:58:55;56.67;;;8.75;;
75087;SDS011;63664;44.868;40.600;2023-03-19T01:01:21;55.55;;;10.18;;
75087;SDS011;63664;44.868;40.600;2023-03-19T01:03:48;74.97;;;9.23;;
75087;SDS011;63664;44.868;40.600;2023-03-19T01:06:20;64.22;;;7.43;;
75087;SDS011;63664;44.868;40.600;2023-03-19T01:08:49;50.90;;;7.43;;
75087;SDS011;63664;44.868;40.600;2023-03-19T01:11:16;50.90;;;6.35;;
75087;SDS011;63664;44.868;40.600;2023-03-19T01:13:43;78.47;;;13.07;;
75087;SDS011;63664;44.868;40.600;2023-03-19T01:16:12;48.50;;;7.72;;
75087;SDS011;63664;44.868;40.600;2023-03-19T01:18:41;62.95;;;9.68;;
75087;SDS011;63664;44.868;40.600;2023-03-19T01:21:07;49.53;;;7.00;;
75087;SDS011;63664;44.868;40.600;2023-03-19T01:23:43;53.80;;;6.00;;
75087;SDS011;63664;44.868;40.600;2023-03-19T01:26:12;68.80;;;6.97;;
75087;SDS011;63664;44.868;40.600;2023-03-19T01:28:39;56.00;;;6.78;;
75087;SDS011;63664;44.868;40.600;2023-03-19T01:31:07;45.78;;;7.93;;
75087;SDS011;63664;44.868;40.600;2023-03-19T01:33:52;46.25;;;7.45;;
75087;SDS011;63664;44.868;40.600;2023-03-19T01:36:31;62.78;;;7.82;;
75087;SDS011;63664;44.868;40.600;2023-03-19T01:39:03;53.70;;;7.57;;
75087;SDS011;63664;44.868;40.600;2023-03-19T01:41:30;43.00;;;7.53;;
75087;SDS011;63664;44.868;40.600;2023-03-19T01:47:38;41.03;;;5.85;;
75087;SDS011;63664;44.868;40.600;2023-03-19T01:50:43;48.22;;;7.13;;
75087;SDS011;63664;44.868;40.600;2023-03-19T01:53:25;48.38;;;6.20;;
75087;SDS011;63664;44.868;40.600;2023-03-19T01:56:15;51.42;;;7.22;;
75087;SDS011;63664;44.868;40.600;2023-03-19T01:59:14;48.28;;;6.82;;
75087;SDS011;63664;44.868;40.600;2023-03-19T02:02:01;42.20;;;5.60;;
75087;SDS011;63664;44.868;40.600;2023-03-19T02:04:55;53.97;;;6.55;;
75087;SDS011;63664;44.868;40.600;2023-03-19T02:07:29;48.53;;;7.32;;
75087;SDS011;63664;44.868;40.600;2023-03-19T02:10:01;42.80;;;6.65;;
75087;SDS011;63664;44.868;40.600;2023-03-19T02:12:32;43.53;;;7.07;;
75087;SDS011;63664;44.868;40.600;2023-03-19T02:14:58;48.47;;;7.75;;
75087;SDS011;63664;44.868;40.600;2023-03-19T02:17:25;49.30;;;6.38;;
75087;SDS011;63664;44.868;40.600;2023-03-19T02:22:31;41.85;;;8.23;;
75087;SDS011;63664;44.868;40.600;2023-03-19T02:25:02;52.78;;;7.47;;
75087;SDS011;63664;44.868;40.600;2023-03-19T02:27:46;48.35;;;5.75;;
75087;SDS011;63664;44.868;40.600;2023-03-19T02:30:23;51.10;;;7.53;;
75087;SDS011;63664;44.868;40.600;2023-03-19T02:32:53;49.80;;;7.75;;
75087;SDS011;63664;44.868;40.600;2023-03-19T02:35:22;60.80;;;8.48;;
75087;SDS011;63664;44.868;40.600;2023-03-19T02:37:49;49.80;;;8.05;;
75087;SDS011;63664;44.868;40.600;2023-03-19T02:40:23;52.70;;;7.70;;
75087;SDS011;63664;44.868;40.600;2023-03-19T02:42:56;59.97;;;7.93;;
75087;SDS011;63664;44.868;40.600;2023-03-19T02:45:26;56.10;;;8.63;;
75087;SDS011;63664;44.868;40.600;2023-03-19T02:47:57;59.95;;;8.30;;
75087;SDS011;63664;44.868;40.600;2023-03-19T02:50:25;24.65;;;5.05;;
75087;SDS011;63664;44.868;40.600;2023-03-19T02:52:52;42.45;;;5.80;;
75087;SDS011;63664;44.868;40.600;2023-03-19T02:55:18;37.92;;;5.72;;
75087;SDS011;63664;44.868;40.600;2023-03-19T02:57:46;44.47;;;7.00;;
75087;SDS011;63664;44.868;40.600;2023-03-19T03:00:16;34.92;;;5.85;;
75087;SDS011;63664;44.868;40.600;2023-03-19T03:02:46;33.67;;;6.35;;
75087;SDS011;63664;44.868;40.600;2023-03-19T03:05:12;34.88;;;6.50;;
75087;SDS011;63664;44.868;40.600;2023-03-19T03:07:39;48.70;;;6.70;;
75087;SDS011;63664;44.868;40.600;2023-03-19T03:10:09;44.38;;;6.95;;
75087;SDS011;63664;44.868;40.600;2023-03-19T03:12:36;44.78;;;7.30;;
75087;SDS011;63664;44.868;40.600;2023-03-19T03:15:04;33.20;;;5.53;;
75087;SDS011;63664;44.868;40.600;2023-03-19T03:17:31;49.88;;;7.20;;
75087;SDS011;63664;44.868;40.600;2023-03-19T03:19:57;38.78;;;6.20;;
75087;SDS011;63664;44.868;40.600;2023-03-19T03:22:26;50.63;;;7.60;;
75087;SDS011;63664;44.868;40.600;2023-03-19T03:24:58;43.97;;;6.95;;
75087;SDS011;63664;44.868;40.600;2023-03-19T03:27:24;49.83;;;6.53;;
75087;SDS011;63664;44.868;40.600;2023-03-19T03:29:51;43.42;;;6.80;;
75087;SDS011;63664;44.868;40.600;2023-03-19T03:32:23;48.42;;;5.93;;
75087;SDS011;63664;44.868;40.600;2023-03-19T03:34:55;46.92;;;6.40;;
75087;SDS011;63664;44.868;40.600;2023-03-19T03:37:21;46.22;;;7.05;;
75087;SDS011;63664;44.868;40.600;2023-03-19T03:39:48;43.92;;;6.70;;
75087;SDS011;63664;44.868;40.600;2023-03-19T03:42:18;42.22;;;6.38;;
75087;SDS011;63664;44.868;40.600;2023-03-19T03:44:49;38.17;;;7.28;;
75087;SDS011;63664;44.868;40.600;2023-03-19T03:47:16;36.90;;;6.07;;
75087;SDS011;63664;44.868;40.600;2023-03-19T03:49:43;34.65;;;6.75;;
75087;SDS011;63664;44.868;40.600;2023-03-19T03:52:11;32.63;;;6.00;;
75087;SDS011;63664;44.868;40.600;2023-03-19T03:54:38;37.28;;;6.00;;
75087;SDS011;63664;44.868;40.600;2023-03-19T03:57:04;33.58;;;6.05;;
75087;SDS011;63664;44.868;40.600;2023-03-19T03:59:30;40.13;;;8.15;;
75087;SDS011;63664;44.868;40.600;2023-03-19T04:01:59;39.45;;;5.82;;
75087;SDS011;63664;44.868;40.600;2023-03-19T04:04:26;38.08;;;6.20;;
75087;SDS011;63664;44.868;40.600;2023-03-19T04:06:55;38.22;;;6.13;;
75087;SDS011;63664;44.868;40.600;2023-03-19T04:09:32;31.20;;;5.95;;
75087;SDS011;63664;44.868;40.600;2023-03-19T04:12:01;49.88;;;7.72;;
75087;SDS011;63664;44.868;40.600;2023-03-19T04:14:29;41.28;;;8.50;;
75087;SDS011;63664;44.868;40.600;2023-03-19T04:16:58;34.33;;;6.53;;
75087;SDS011;63664;44.868;40.600;2023-03-19T04:19:25;39.70;;;7.57;;
75087;SDS011;63664;44.868;40.600;2023-03-19T04:21:54;38.13;;;6.45;;
75087;SDS011;63664;44.868;40.600;2023-03-19T04:24:25;39.83;;;7.20;;
75087;SDS011;63664;44.868;40.600;2023-03-19T04:26:54;53.55;;;9.75;;
75087;SDS011;63664;44.868;40.600;2023-03-19T04:29:20;56.85;;;9.20;;
75087;SDS011;63664;44.868;40.600;2023-03-19T04:31:51;45.88;;;8.27;;
75087;SDS011;63664;44.868;40.600;2023-03-19T04:34:17;42.53;;;7.70;;
75087;SDS011;63664;44.868;40.600;2023-03-19T04:36:44;47.22;;;7.63;;
75087;SDS011;63664;44.868;40.600;2023-03-19T04:39:13;44.25;;;8.35;;
75087;SDS011;63664;44.868;40.600;2023-03-19T04:41:39;48.92;;;9.30;;
75087;SDS011;63664;44.868;40.600;2023-03-19T04:44:28;50.33;;;9.45;;
75087;SDS011;63664;44.868;40.600;2023-03-19T04:47:00;39.72;;;8.35;;
75087;SDS011;63664;44.868;40.600;2023-03-19T04:49:33;34.03;;;6.95;;
75087;SDS011;63664;44.868;40.600;2023-03-19T04:52:02;40.80;;;7.72;;
75087;SDS011;63664;44.868;40.600;2023-03-19T04:54:32;31.08;;;5.75;;
75087;SDS011;63664;44.868;40.600;2023-03-19T04:56:58;34.60;;;6.90;;
75087;SDS011;63664;44.868;40.600;2023-03-19T06:51:27;44.47;;;8.85;;
75087;SDS011;63664;44.868;40.600;2023-03-19T06:53:56;27.95;;;6.95;;
75087;SDS011;63664;44.868;40.600;2023-03-19T06:56:25;37.97;;;8.20;;
75087;SDS011;63664;44.868;40.600;2023-03-19T06:58:54;36.92;;;6.82;;
75087;SDS011;63664;44.868;40.600;2023-03-19T07:01:22;40.85;;;9.02;;
75087;SDS011;63664;44.868;40.600;2023-03-19T07:03:48;38.17;;;8.07;;
75087;SDS011;63664;44.868;40.600;2023-03-19T07:06:15;28.77;;;7.15;;
75087;SDS011;63664;44.868;40.600;2023-03-19T07:08:44;35.17;;;7.75;;
75087;SDS011;63664;44.868;40.600;2023-03-19T07:11:11;34.38;;;7.35;;
75087;SDS011;63664;44.868;40.600;2023-03-19T07:13:38;48.15;;;7.95;;
75087;SDS011;63664;44.868;40.600;2023-03-19T07:16:04;41.38;;;8.75;;
75087;SDS011;63664;44.868;40.600;2023-03-19T07:18:31;42.47;;;8.18;;
75087;SDS011;63664;44.868;40.600;2023-03-19T07:21:00;41.30;;;7.43;;
75087;SDS011;63664;44.868;40.600;2023-03-19T07:23:29;39.00;;;8.20;;
75087;SDS011;63664;44.868;40.600;2023-03-19T07:25:57;37.92;;;7.97;;
75087;SDS011;63664;44.868;40.600;2023-03-19T07:28:23;32.28;;;7.57;;
75087;SDS011;63664;44.868;40.600;2023-03-19T07:30:52;42.92;;;9.65;;
75087;SDS011;63664;44.868;40.600;2023-03-19T07:33:19;42.53;;;7.97;;
75087;SDS011;63664;44.868;40.600;2023-03-19T07:35:46;41.70;;;8.38;;
75087;SDS011;63664;44.868;40.600;2023-03-19T07:38:16;41.80;;;8.52;;
75087;SDS011;63664;44.868;40.600;2023-03-19T07:40:42;26.83;;;7.75;;
75087;SDS011;63664;44.868;40.600;2023-03-19T07:43:09;27.00;;;6.95;;
75087;SDS011;63664;44.868;40.600;2023-03-19T07:45:35;25.15;;;6.95;;
75087;SDS011;63664;44.868;40.600;2023-03-19T07:48:07;25.13;;;6.18;;
75087;SDS011;63664;44.868;40.600;2023-03-19T07:50:36;37.75;;;6.35;;
75087;SDS011;63664;44.868;40.600;2023-03-19T07:53:04;28.52;;;6.38;;
75087;SDS011;63664;44.868;40.600;2023-03-19T07:55:32;25.25;;;6.18;;
75087;SDS011;63664;44.868;40.600;2023-03-19T07:57:58;31.15;;;6.25;;
75087;SDS011;63664;44.868;40.600;2023-03-19T08:00:27;35.35;;;6.75;;
75087;SDS011;63664;44.868;40.600;2023-03-19T08:02:55;40.17;;;7.22;;
75087;SDS011;63664;44.868;40.600;2023-03-19T08:05:24;28.00;;;6.22;;
75087;SDS011;63664;44.868;40.600;2023-03-19T08:07:54;33.08;;;6.28;;
75087;SDS011;63664;44.868;40.600;2023-03-19T08:10:20;36.63;;;7.55;;
75087;SDS011;63664;44.868;40.600;2023-03-19T08:12:46;47.30;;;7.93;;
75087;SDS011;63664;44.868;40.600;2023-03-19T08:15:13;35.72;;;7.45;;
75087;SDS011;63664;44.868;40.600;2023-03-19T08:17:39;28.98;;;6.43;;
75087;SDS011;63664;44.868;40.600;2023-03-19T08:20:12;31.95;;;6.85;;
75087;SDS011;63664;44.868;40.600;2023-03-19T08:22:43;29.13;;;5.95;;
75087;SDS011;63664;44.868;40.600;2023-03-19T08:25:14;26.00;;;6.35;;
75087;SDS011;63664;44.868;40.600;2023-03-19T08:27:40;28.17;;;5.45;;
75087;SDS011;63664;44.868;40.600;2023-03-19T08:30:09;34.58;;;6.28;;
75087;SDS011;63664;44.868;40.600;2023-03-19T08:32:36;31.23;;;6.22;;
75087;SDS011;63664;44.868;40.600;2023-03-19T08:35:03;28.40;;;6.32;;
75087;SDS011;63664;44.868;40.600;2023-03-19T08:37:30;27.15;;;5.97;;
75087;SDS011;63664;44.868;40.600;2023-03-19T08:40:02;26.65;;;7.35;;
75087;SDS011;63664;44.868;40.600;2023-03-19T08:42:29;24.23;;;6.68;;
75087;SDS011;63664;44.868;40.600;2023-03-19T08:44:55;21.40;;;5.70;;
75087;SDS011;63664;44.868;40.600;2023-03-19T08:47:24;20.77;;;5.40;;
75087;SDS011;63664;44.868;40.600;2023-03-19T08:49:52;23.85;;;6.32;;
75087;SDS011;63664;44.868;40.600;2023-03-19T08:52:21;25.80;;;6.30;;
75087;SDS011;63664;44.868;40.600;2023-03-19T08:54:51;26.05;;;6.57;;
75087;SDS011;63664;44.868;40.600;2023-03-19T08:57:19;27.48;;;9.38;;
75087;SDS011;63664;44.868;40.600;2023-03-19T08:59:48;17.80;;;5.55;;
75087;SDS011;63664;44.868;40.600;2023-03-19T09:02:14;15.88;;;5.90;;
75087;SDS011;63664;44.868;40.600;2023-03-19T09:04:44;27.92;;;6.45;;
75087;SDS011;63664;44.868;40.600;2023-03-19T09:07:11;15.65;;;5.00;;
75087;SDS011;63664;44.868;40.600;2023-03-19T09:09:43;18.35;;;5.72;;
75087;SDS011;63664;44.868;40.600;2023-03-19T09:12:11;12.07;;;4.75;;
75087;SDS011;63664;44.868;40.600;2023-03-19T09:14:40;16.27;;;6.57;;
75087;SDS011;63664;44.868;40.600;2023-03-19T09:17:06;17.08;;;6.55;;
75087;SDS011;63664;44.868;40.600;2023-03-19T09:19:33;19.85;;;7.70;;
75087;SDS011;63664;44.868;40.600;2023-03-19T09:21:59;45.30;;;16.13;;
75087;SDS011;63664;44.868;40.600;2023-03-19T09:24:31;21.33;;;6.15;;
75087;SDS011;63664;44.868;40.600;2023-03-19T09:27:02;19.77;;;8.07;;
75087;SDS011;63664;44.868;40.600;2023-03-19T09:29:30;28.63;;;8.82;;
75087;SDS011;63664;44.868;40.600;2023-03-19T09:31:59;19.05;;;6.88;;
75087;SDS011;63664;44.868;40.600;2023-03-19T09:34:25;26.95;;;9.05;;
75087;SDS011;63664;44.868;40.600;2023-03-19T09:36:52;18.42;;;6.10;;
75087;SDS011;63664;44.868;40.600;2023-03-19T09:39:21;21.33;;;5.82;;
75087;SDS011;63664;44.868;40.600;2023-03-19T09:42:04;19.98;;;7.68;;
75087;SDS011;63664;44.868;40.600;2023-03-19T09:44:55;13.35;;;4.63;;
75087;SDS011;63664;44.868;40.600;2023-03-19T09:47:31;20.13;;;6.05;;
75087;SDS011;63664;44.868;40.600;2023-03-19T09:50:02;17.05;;;5.18;;
75087;SDS011;63664;44.868;40.600;2023-03-19T09:57:51;17.70;;;4.95;;
75087;SDS011;63664;44.868;40.600;2023-03-19T10:00:21;28.88;;;7.88;;
75087;SDS011;63664;44.868;40.600;2023-03-19T10:03:38;22.17;;;6.43;;
75087;SDS011;63664;44.868;40.600;2023-03-19T10:16:33;21.27;;;6.60;;
75087;SDS011;63664;44.868;40.600;2023-03-19T10:19:02;31.83;;;7.03;;
75087;SDS011;63664;44.868;40.600;2023-03-19T10:21:36;17.15;;;5.25;;
75087;SDS011;63664;44.868;40.600;2023-03-19T10:24:13;24.80;;;5.20;;
75087;SDS011;63664;44.868;40.600;2023-03-19T10:27:04;29.33;;;7.22;;
75087;SDS011;63664;44.868;40.600;2023-03-19T10:29:42;22.30;;;6.00;;
75087;SDS011;63664;44.868;40.600;2023-03-19T10:34:46;21.60;;;5.55;;
75087;SDS011;63664;44.868;40.600;2023-03-19T10:39:50;31.85;;;5.47;;
75087;SDS011;63664;44.868;40.600;2023-03-19T10:47:46;28.17;;;6.38;;
75087;SDS011;63664;44.868;40.600;2023-03-19T10:50:18;21.92;;;8.95;;
75087;SDS011;63664;44.868;40.600;2023-03-19T10:52:49;18.58;;;6.00;;
75087;SDS011;63664;44.868;40.600;2023-03-19T10:55:28;23.98;;;6.18;;
75087;SDS011;63664;44.868;40.600;2023-03-19T10:58:01;20.85;;;7.00;;
75087;SDS011;63664;44.868;40.600;2023-03-19T11:00:43;16.42;;;5.45;;
75087;SDS011;63664;44.868;40.600;2023-03-19T11:03:36;25.65;;;7.15;;
75087;SDS011;63664;44.868;40.600;2023-03-19T11:06:16;17.33;;;4.97;;
75087;SDS011;63664;44.868;40.600;2023-03-19T11:09:20;11.73;;;4.70;;
75087;SDS011;63664;44.868;40.600;2023-03-19T11:11:56;15.30;;;4.95;;
75087;SDS011;63664;44.868;40.600;2023-03-19T11:14:33;20.65;;;7.05;;
75087;SDS011;63664;44.868;40.600;2023-03-19T11:17:05;8.88;;;3.50;;
75087;SDS011;63664;44.868;40.600;2023-03-19T11:19:42;14.88;;;5.22;;
75087;SDS011;63664;44.868;40.600;2023-03-19T11:22:25;13.35;;;4.75;;
75087;SDS011;63664;44.868;40.600;2023-03-19T11:25:00;15.43;;;5.25;;
75087;SDS011;63664;44.868;40.600;2023-03-19T11:27:31;22.15;;;7.72;;
75087;SDS011;63664;44.868;40.600;2023-03-19T11:30:00;15.63;;;4.82;;
75087;SDS011;63664;44.868;40.600;2023-03-19T11:35:14;15.68;;;5.55;;
75087;SDS011;63664;44.868;40.600;2023-03-19T11:40:28;10.95;;;4.60;;
75087;SDS011;63664;44.868;40.600;2023-03-19T11:51:31;11.95;;;5.15;;
75087;SDS011;63664;44.868;40.600;2023-03-19T11:56:50;20.63;;;8.45;;
75087;SDS011;63664;44.868;40.600;2023-03-19T12:02:44;26.38;;;10.27;;
75087;SDS011;63664;44.868;40.600;2023-03-19T12:05:52;17.52;;;6.28;;
75087;SDS011;63664;44.868;40.600;2023-03-19T12:16:23;17.88;;;5.47;;
75087;SDS011;63664;44.868;40.600;2023-03-19T12:24:43;9.93;;;4.20;;
75087;SDS011;63664;44.868;40.600;2023-03-19T12:35:48;16.10;;;6.30;;
75087;SDS011;63664;44.868;40.600;2023-03-19T12:38:37;14.30;;;4.53;;
75087;SDS011;63664;44.868;40.600;2023-03-19T12:41:10;23.90;;;7.10;;
75087;SDS011;63664;44.868;40.600;2023-03-19T13:10:24;15.90;;;5.47;;
75087;SDS011;63664;44.868;40.600;2023-03-19T13:12:53;13.88;;;6.10;;
75087;SDS011;63664;44.868;40.600;2023-03-19T13:23:47;12.05;;;3.75;;
75087;SDS011;63664;44.868;40.600;2023-03-19T13:26:26;16.70;;;4.28;;
75087;SDS011;63664;44.868;40.600;2023-03-19T13:31:37;18.20;;;4.00;;
75087;SDS011;63664;44.868;40.600;2023-03-19T13:39:48;36.00;;;4.63;;
75087;SDS011;63664;44.868;40.600;2023-03-19T13:42:22;38.47;;;4.60;;
75087;SDS011;63664;44.868;40.600;2023-03-19T13:45:26;31.33;;;5.35;;
75087;SDS011;63664;44.868;40.600;2023-03-19T13:47:57;27.60;;;5.53;;
75087;SDS011;63664;44.868;40.600;2023-03-19T13:50:54;37.33;;;4.75;;
75087;SDS011;63664;44.868;40.600;2023-03-19T13:53:51;30.55;;;4.65;;
75087;SDS011;63664;44.868;40.600;2023-03-19T13:59:34;24.10;;;3.72;;
75087;SDS011;63664;44.868;40.600;2023-03-19T14:52:55;55.17;;;11.20;;
75087;SDS011;63664;44.868;40.600;2023-03-19T14:55:46;66.43;;;14.80;;
75087;SDS011;63664;44.868;40.600;2023-03-19T14:58:17;57.40;;;12.10;;
75087;SDS011;63664;44.868;40.600;2023-03-19T15:00:46;42.58;;;9.68;;
75087;SDS011;63664;44.868;40.600;2023-03-19T15:03:20;56.60;;;10.88;;
75087;SDS011;63664;44.868;40.600;2023-03-19T15:06:00;41.35;;;9.18;;
75087;SDS011;63664;44.868;40.600;2023-03-19T15:08:33;36.42;;;7.22;;
75087;SDS011;63664;44.868;40.600;2023-03-19T15:19:52;44.17;;;8.25;;
75087;SDS011;63664;44.868;40.600;2023-03-19T15:22:33;37.83;;;8.45;;
75087;SDS011;63664;44.868;40.600;2023-03-19T15:25:06;34.33;;;6.85;;
75087;SDS011;63664;44.868;40.600;2023-03-19T15:27:38;36.42;;;6.97;;
75087;SDS011;63664;44.868;40.600;2023-03-19T15:30:23;36.20;;;6.65;;
75087;SDS011;63664;44.868;40.600;2023-03-19T15:32:59;39.95;;;8.63;;
75087;SDS011;63664;44.868;40.600;2023-03-19T15:35:30;31.35;;;6.32;;
75087;SDS011;63664;44.868;40.600;2023-03-19T15:38:02;35.15;;;8.52;;
75087;SDS011;63664;44.868;40.600;2023-03-19T15:40:36;20.02;;;6.80;;
75087;SDS011;63664;44.868;40.600;2023-03-19T15:43:08;44.97;;;8.10;;
75087;SDS011;63664;44.868;40.600;2023-03-19T15:53:40;30.67;;;8.48;;
75087;SDS011;63664;44.868;40.600;2023-03-19T15:56:08;32.25;;;7.00;;
75087;SDS011;63664;44.868;40.600;2023-03-19T15:58:42;34.53;;;6.38;;
75087;SDS011;63664;44.868;40.600;2023-03-19T16:01:12;29.08;;;6.22;;
75087;SDS011;63664;44.868;40.600;2023-03-19T16:03:43;48.80;;;6.97;;
75087;SDS011;63664;44.868;40.600;2023-03-19T16:08:54;24.83;;;5.10;;
75087;SDS011;63664;44.868;40.600;2023-03-19T16:11:35;33.33;;;4.93;;
75087;SDS011;63664;44.868;40.600;2023-03-19T16:14:10;29.30;;;5.75;;
75087;SDS011;63664;44.868;40.600;2023-03-19T16:16:43;36.58;;;5.07;;
75087;SDS011;63664;44.868;40.600;2023-03-19T16:19:27;30.13;;;4.95;;
75087;SDS011;63664;44.868;40.600;2023-03-19T16:21:57;27.98;;;5.47;;
75087;SDS011;63664;44.868;40.600;2023-03-19T16:27:17;41.47;;;6.05;;
75087;SDS011;63664;44.868;40.600;2023-03-19T16:29:59;28.52;;;6.25;;
75087;SDS011;63664;44.868;40.600;2023-03-19T16:32:31;19.35;;;4.50;;
75087;SDS011;63664;44.868;40.600;2023-03-19T16:35:08;28.20;;;5.72;;
75087;SDS011;63664;44.868;40.600;2023-03-19T16:37:46;29.17;;;5.78;;
75087;SDS011;63664;44.868;40.600;2023-03-19T16:42:49;37.28;;;5.72;;
75087;SDS011;63664;44.868;40.600;2023-03-19T16:45:22;29.92;;;5.88;;
75087;SDS011;63664;44.868;40.600;2023-03-19T16:47:56;32.13;;;5.63;;
75087;SDS011;63664;44.868;40.600;2023-03-19T16:50:34;33.88;;;5.47;;
75087;SDS011;63664;44.868;40.600;2023-03-19T16:53:11;35.13;;;6.45;;
75087;SDS011;63664;44.868;40.600;2023-03-19T16:55:53;32.47;;;6.95;;
75087;SDS011;63664;44.868;40.600;2023-03-19T16:58:36;29.00;;;6.35;;
75087;SDS011;63664;44.868;40.600;2023-03-19T17:06:16;39.40;;;7.45;;
75087;SDS011;63664;44.868;40.600;2023-03-19T17:08:46;34.80;;;7.43;;
75087;SDS011;63664;44.868;40.600;2023-03-19T17:11:24;40.13;;;7.90;;
75087;SDS011;63664;44.868;40.600;2023-03-19T17:13:58;28.58;;;5.93;;
75087;SDS011;63664;44.868;40.600;2023-03-19T17:16:30;42.13;;;9.95;;
75087;SDS011;63664;44.868;40.600;2023-03-19T17:19:00;41.78;;;8.65;;
75087;SDS011;63664;44.868;40.600;2023-03-19T17:21:27;32.75;;;8.90;;
75087;SDS011;63664;44.868;40.600;2023-03-19T17:23:56;44.35;;;9.43;;
75087;SDS011;63664;44.868;40.600;2023-03-19T17:26:30;40.80;;;10.27;;
75087;SDS011;63664;44.868;40.600;2023-03-19T17:28:56;35.28;;;10.02;;
75087;SDS011;63664;44.868;40.600;2023-03-19T17:31:27;39.50;;;9.55;;
75087;SDS011;63664;44.868;40.600;2023-03-19T17:34:10;33.42;;;8.60;;
75087;SDS011;63664;44.868;40.600;2023-03-19T17:36:52;37.03;;;7.93;;
75087;SDS011;63664;44.868;40.600;2023-03-19T17:39:23;42.88;;;9.40;;
75087;SDS011;63664;44.868;40.600;2023-03-19T17:41:55;32.67;;;8.18;;
75087;SDS011;63664;44.868;40.600;2023-03-19T17:44:21;53.92;;;7.90;;
75087;SDS011;63664;44.868;40.600;2023-03-19T17:46:51;44.97;;;8.82;;
75087;SDS011;63664;44.868;40.600;2023-03-19T17:49:22;34.95;;;8.55;;
75087;SDS011;63664;44.868;40.600;2023-03-19T17:52:02;36.33;;;8.15;;
75087;SDS011;63664;44.868;40.600;2023-03-19T17:54:31;36.30;;;7.55;;
75087;SDS011;63664;44.868;40.600;2023-03-19T17:56:57;43.08;;;9.38;;
75087;SDS011;63664;44.868;40.600;2023-03-19T17:59:25;45.40;;;7.97;;
75087;SDS011;63664;44.868;40.600;2023-03-19T18:01:52;40.15;;;8.10;;
75087;SDS011;63664;44.868;40.600;2023-03-19T18:04:19;38.78;;;8.65;;
75087;SDS011;63664;44.868;40.600;2023-03-19T18:06:52;38.90;;;10.25;;
75087;SDS011;63664;44.868;40.600;2023-03-19T18:09:25;35.65;;;10.32;;
75087;SDS011;63664;44.868;40.600;2023-03-19T18:14:23;42.75;;;8.93;;
75087;SDS011;63664;44.868;40.600;2023-03-19T18:16:52;42.75;;;9.35;;
75087;SDS011;63664;44.868;40.600;2023-03-19T18:19:31;36.13;;;9.23;;
75087;SDS011;63664;44.868;40.600;2023-03-19T18:21:59;45.72;;;11.82;;
75087;SDS011;63664;44.868;40.600;2023-03-19T18:24:30;39.00;;;9.52;;
75087;SDS011;63664;44.868;40.600;2023-03-19T18:27:01;36.28;;;10.93;;
75087;SDS011;63664;44.868;40.600;2023-03-19T18:29:33;42.50;;;11.70;;
75087;SDS011;63664;44.868;40.600;2023-03-19T18:32:04;31.27;;;9.13;;
75087;SDS011;63664;44.868;40.600;2023-03-19T18:34:35;35.40;;;9.45;;
75087;SDS011;63664;44.868;40.600;2023-03-19T18:37:04;28.17;;;8.25;;
75087;SDS011;63664;44.868;40.600;2023-03-19T18:39:30;32.75;;;8.27;;
75087;SDS011;63664;44.868;40.600;2023-03-19T18:42:09;44.65;;;8.77;;
75087;SDS011;63664;44.868;40.600;2023-03-19T18:44:41;42.80;;;7.32;;
75087;SDS011;63664;44.868;40.600;2023-03-19T18:47:12;39.72;;;8.48;;
75087;SDS011;63664;44.868;40.600;2023-03-19T18:49:44;38.53;;;8.07;;
75087;SDS011;63664;44.868;40.600;2023-03-19T18:52:13;38.78;;;8.20;;
75087;SDS011;63664;44.868;40.600;2023-03-19T18:54:40;49.35;;;8.30;;
75087;SDS011;63664;44.868;40.600;2023-03-19T18:57:08;39.85;;;9.50;;
75087;SDS011;63664;44.868;40.600;2023-03-19T18:59:40;40.10;;;9.50;;
75087;SDS011;63664;44.868;40.600;2023-03-19T19:05:05;31.77;;;8.05;;
75087;SDS011;63664;44.868;40.600;2023-03-19T19:07:41;45.03;;;7.10;;
75087;SDS011;63664;44.868;40.600;2023-03-19T19:10:10;42.22;;;7.43;;
75087;SDS011;63664;44.868;40.600;2023-03-19T19:12:41;28.27;;;8.15;;
75087;SDS011;63664;44.868;40.600;2023-03-19T19:15:15;50.08;;;9.35;;
75087;SDS011;63664;44.868;40.600;2023-03-19T19:17:58;30.05;;;7.60;;
75087;SDS011;63664;44.868;40.600;2023-03-19T19:20:28;25.75;;;7.05;;
75087;SDS011;63664;44.868;40.600;2023-03-19T19:22:54;24.88;;;5.68;;
75087;SDS011;63664;44.868;40.600;2023-03-19T19:25:27;31.30;;;7.20;;
75087;SDS011;63664;44.868;40.600;2023-03-19T19:30:30;31.17;;;6.72;;
75087;SDS011;63664;44.868;40.600;2023-03-19T19:33:02;16.45;;;5.35;;
75087;SDS011;63664;44.868;40.600;2023-03-19T19:35:38;33.72;;;6.47;;
75087;SDS011;63664;44.868;40.600;2023-03-19T19:38:09;36.08;;;8.20;;
75087;SDS011;63664;44.868;40.600;2023-03-19T19:40:37;37.35;;;7.75;;
75087;SDS011;63664;44.868;40.600;2023-03-19T19:43:12;46.45;;;7.00;;
75087;SDS011;63664;44.868;40.600;2023-03-19T19:45:46;26.95;;;6.07;;
75087;SDS011;63664;44.868;40.600;2023-03-19T19:48:17;34.85;;;7.63;;
75087;SDS011;63664;44.868;40.600;2023-03-19T19:50:48;37.28;;;6.22;;
75087;SDS011;63664;44.868;40.600;2023-03-19T19:53:19;31.17;;;7.40;;
75087;SDS011;63664;44.868;40.600;2023-03-19T19:55:51;25.40;;;7.35;;
75087;SDS011;63664;44.868;40.600;2023-03-19T19:58:27;25.02;;;6.93;;
75087;SDS011;63664;44.868;40.600;2023-03-19T20:01:01;28.67;;;6.70;;
75087;SDS011;63664;44.868;40.600;2023-03-19T20:03:30;33.38;;;7.45;;
75087;SDS011;63664;44.868;40.600;2023-03-19T20:06:02;29.38;;;7.32;;
75087;SDS011;63664;44.868;40.600;2023-03-19T20:08:31;41.80;;;7.65;;
75087;SDS011;63664;44.868;40.600;2023-03-19T20:10:57;39.20;;;6.65;;